createdAt,value
2018-10-16T00:02:05.098Z,13.00
2018-10-16T00:04:35.108Z,16.17
2018-10-16T00:07:03.411Z,11.90
2018-10-16T00:09:31.539Z,12.50
2018-10-16T00:12:02.774Z,13.27
2018-10-16T00:14:31.234Z,14.20
2018-10-16T00:16:59.975Z,17.60
2018-10-16T00:19:28.136Z,12.00
2018-10-16T00:21:56.242Z,13.60
2018-10-16T00:24:24.393Z,12.53
2018-10-16T00:26:52.466Z,13.03
2018-10-16T00:29:21.215Z,13.73
2018-10-16T00:31:49.316Z,10.87
2018-10-16T00:34:17.594Z,11.47
2018-10-16T00:36:45.671Z,12.40
2018-10-16T00:39:14.968Z,12.10
2018-10-16T00:41:43.389Z,13.00
2018-10-16T00:44:12.609Z,12.47
2018-10-16T00:46:41.721Z,11.93
2018-10-16T00:49:09.800Z,12.90
2018-10-16T00:51:39.312Z,13.17
2018-10-16T00:54:07.954Z,13.57
2018-10-16T00:56:36.796Z,12.27
2018-10-16T00:59:05.036Z,16.47
2018-10-16T01:01:34.076Z,13.67
2018-10-16T01:04:03.459Z,11.40
2018-10-16T01:06:32.551Z,14.23
2018-10-16T01:09:00.789Z,13.17
2018-10-16T01:11:29.757Z,12.73
2018-10-16T01:13:58.546Z,13.00
2018-10-16T01:16:26.694Z,11.67
2018-10-16T01:18:54.814Z,12.03
2018-10-16T01:21:23.684Z,12.80
2018-10-16T01:23:51.768Z,13.47
2018-10-16T01:26:19.900Z,11.80
2018-10-16T01:28:47.985Z,14.03
2018-10-16T01:31:16.067Z,12.27
2018-10-16T01:33:44.136Z,13.30
2018-10-16T01:36:12.589Z,18.73
2018-10-16T01:38:40.713Z,12.37
2018-10-16T01:41:11.052Z,12.77
2018-10-16T01:43:39.685Z,12.90
2018-10-16T01:46:08.372Z,13.20
2018-10-16T01:48:37.051Z,11.73
2018-10-16T01:51:05.124Z,13.80
2018-10-16T01:53:33.253Z,13.63
2018-10-16T01:56:01.329Z,12.77
2018-10-16T01:58:29.473Z,13.40
2018-10-16T02:00:58.030Z,12.03
2018-10-16T02:03:26.228Z,14.50
2018-10-16T02:05:54.314Z,12.90
2018-10-16T02:08:22.477Z,13.27
2018-10-16T02:10:50.597Z,12.43
2018-10-16T02:13:18.705Z,14.83
2018-10-16T02:15:47.791Z,13.93
2018-10-16T02:18:15.918Z,12.93
2018-10-16T02:20:44.047Z,12.53
2018-10-16T02:23:12.153Z,13.50
2018-10-16T02:25:40.238Z,12.20
2018-10-16T02:28:08.663Z,12.77
2018-10-16T02:30:36.721Z,13.13
2018-10-16T02:33:05.145Z,12.43
2018-10-16T02:35:33.441Z,12.67
2018-10-16T02:38:01.881Z,16.60
2018-10-16T02:40:29.990Z,13.70
2018-10-16T02:42:58.036Z,16.80
2018-10-16T02:45:26.102Z,18.03
2018-10-16T02:47:54.308Z,13.63
2018-10-16T02:50:22.377Z,14.33
2018-10-16T02:52:50.466Z,13.20
2018-10-16T02:55:18.611Z,13.83
2018-10-16T02:57:46.668Z,12.70
2018-10-16T03:00:14.881Z,12.73
2018-10-16T03:02:42.962Z,14.10
2018-10-16T03:05:11.094Z,14.03
2018-10-16T03:07:39.530Z,12.67
2018-10-16T03:10:07.700Z,14.00
2018-10-16T03:12:36.027Z,14.70
2018-10-16T03:15:05.814Z,14.37
2018-10-16T03:17:34.472Z,13.07
2018-10-16T03:20:02.532Z,13.43
2018-10-16T03:22:30.708Z,16.17
2018-10-16T03:24:58.830Z,18.50
2018-10-16T03:27:26.927Z,14.37
2018-10-16T03:29:55.094Z,13.27
2018-10-16T03:32:23.210Z,15.00
2018-10-16T03:34:51.305Z,13.40
2018-10-16T03:37:19.430Z,14.40
2018-10-16T03:39:47.521Z,13.33
2018-10-16T03:42:15.678Z,13.57
2018-10-16T03:44:43.740Z,15.90
2018-10-16T03:47:11.837Z,20.63
2018-10-16T03:49:39.954Z,13.27
2018-10-16T03:52:08.375Z,13.03
2018-10-16T03:54:36.452Z,13.90
2018-10-16T03:57:04.617Z,13.80
2018-10-16T03:59:32.848Z,13.50
2018-10-16T04:02:00.976Z,15.30
2018-10-16T04:04:29.076Z,14.37
2018-10-16T04:06:57.166Z,14.80
2018-10-16T04:09:25.307Z,14.40
2018-10-16T04:11:53.390Z,15.77
2018-10-16T04:14:21.640Z,15.50
2018-10-16T04:16:49.726Z,14.23
2018-10-16T04:19:17.793Z,17.60
2018-10-16T04:21:46.905Z,13.40
2018-10-16T04:24:15.410Z,14.77
2018-10-16T04:26:43.666Z,14.73
2018-10-16T04:29:12.184Z,16.10
2018-10-16T04:31:40.616Z,14.53
2018-10-16T04:34:09.729Z,14.47
2018-10-16T04:36:37.876Z,14.80
2018-10-16T04:39:07.857Z,15.77
2018-10-16T04:41:36.020Z,13.90
2018-10-16T04:44:04.843Z,15.30
2018-10-16T04:46:33.090Z,14.53
2018-10-16T04:49:01.404Z,15.37
2018-10-16T04:51:29.542Z,15.63
2018-10-16T04:53:57.677Z,13.93
2018-10-16T04:56:25.884Z,15.30
2018-10-16T04:58:53.972Z,16.93
2018-10-16T05:01:22.037Z,14.50
2018-10-16T05:03:50.112Z,16.43
2018-10-16T05:06:19.053Z,15.63
2018-10-16T05:08:47.149Z,15.17
2018-10-16T05:11:15.242Z,16.23
2018-10-16T05:13:43.321Z,18.60
2018-10-16T05:16:11.492Z,14.40
2018-10-16T05:18:39.543Z,13.60
2018-10-16T05:21:07.875Z,14.53
2018-10-16T05:23:36.021Z,17.63
2018-10-16T05:26:04.163Z,20.50
2018-10-16T05:28:33.139Z,16.23
2018-10-16T05:31:01.257Z,16.73
2018-10-16T05:33:29.505Z,19.23
2018-10-16T05:35:57.554Z,18.23
2018-10-16T05:38:25.970Z,20.20
2018-10-16T05:40:54.073Z,17.77
2018-10-16T05:43:22.169Z,23.37
2018-10-16T05:45:50.370Z,15.93
2018-10-16T05:48:18.600Z,17.07
2018-10-16T05:50:46.689Z,18.37
2018-10-16T05:53:14.920Z,19.77
2018-10-16T05:55:43.013Z,18.17
2018-10-16T05:58:11.246Z,18.57
2018-10-16T06:00:40.978Z,15.70
2018-10-16T06:03:09.372Z,18.30
2018-10-16T06:05:37.715Z,16.50
2018-10-16T06:08:06.436Z,17.97
2018-10-16T06:10:34.802Z,17.33
2018-10-16T06:13:02.897Z,14.53
2018-10-16T06:15:30.978Z,17.83
2018-10-16T06:17:59.045Z,18.00
2018-10-16T06:20:27.346Z,16.10
2018-10-16T06:22:55.517Z,16.43
2018-10-16T06:25:23.654Z,15.17
2018-10-16T06:27:51.933Z,17.33
2018-10-16T06:30:20.288Z,15.50
2018-10-16T06:32:48.532Z,19.33
2018-10-16T06:35:16.599Z,16.40
2018-10-16T06:37:44.685Z,15.60
2018-10-16T06:40:13.016Z,16.50
2018-10-16T06:42:41.114Z,29.47
2018-10-16T06:45:10.070Z,18.20
2018-10-16T06:47:38.192Z,16.53
2018-10-16T06:50:07.232Z,16.63
2018-10-16T06:52:35.332Z,15.30
2018-10-16T06:55:04.039Z,14.97
2018-10-16T06:57:32.295Z,20.37
2018-10-16T07:00:00.505Z,26.00
2018-10-16T07:02:28.876Z,25.97
2018-10-16T07:04:56.984Z,21.67
2018-10-16T07:07:25.147Z,24.07
2018-10-16T07:09:53.780Z,19.93
2018-10-16T07:12:21.845Z,14.77
2018-10-16T07:14:50.021Z,18.10
2018-10-16T07:17:18.257Z,20.63
2018-10-16T07:19:46.505Z,18.17
2018-10-16T07:22:14.606Z,21.60
2018-10-16T07:24:42.947Z,18.40
2018-10-16T07:27:11.344Z,17.30
2018-10-16T07:29:40.169Z,21.80
2018-10-16T07:32:08.273Z,22.00
2018-10-16T07:34:36.962Z,21.03
2018-10-16T07:37:05.269Z,24.90
2018-10-16T07:39:33.323Z,21.83
2018-10-16T07:42:01.430Z,18.07
2018-10-16T07:44:29.662Z,29.90
2018-10-16T07:46:58.297Z,23.27
2018-10-16T07:49:26.549Z,19.87
2018-10-16T07:51:54.597Z,18.87
2018-10-16T07:54:23.590Z,21.97
2018-10-16T07:56:51.751Z,22.17
2018-10-16T07:59:19.947Z,33.07
2018-10-16T08:01:48.013Z,22.63
2018-10-16T08:04:16.136Z,24.53
2018-10-16T08:06:44.218Z,23.50
2018-10-16T08:09:14.077Z,34.33
2018-10-16T08:11:46.713Z,25.83
2018-10-16T08:14:15.952Z,26.70
2018-10-16T08:16:45.473Z,21.20
2018-10-16T08:19:13.933Z,24.10
2018-10-16T08:21:42.233Z,23.90
2018-10-16T08:24:10.345Z,25.70
2018-10-16T08:26:38.680Z,26.30
2018-10-16T08:29:07.389Z,29.10
2018-10-16T08:31:35.521Z,25.70
2018-10-16T08:34:04.078Z,27.77
2018-10-16T08:36:32.903Z,29.10
2018-10-16T08:39:01.814Z,31.63
2018-10-16T08:41:32.753Z,26.70
2018-10-16T08:44:06.225Z,26.80
2018-10-16T08:46:39.966Z,21.17
2018-10-16T08:49:13.659Z,19.77
2018-10-16T08:51:50.700Z,25.97
2018-10-16T08:54:19.518Z,23.20
2018-10-16T08:56:47.708Z,21.10
2018-10-16T08:59:15.791Z,19.53
2018-10-16T09:01:43.873Z,19.77
2018-10-16T09:04:11.933Z,24.30
2018-10-16T09:06:40.090Z,22.80
2018-10-16T09:09:09.145Z,23.37
2018-10-16T09:11:37.208Z,22.47
2018-10-16T09:14:05.679Z,25.50
2018-10-16T09:16:33.853Z,18.50
2018-10-16T09:19:01.930Z,19.00
2018-10-16T09:21:30.227Z,22.80
2018-10-16T09:23:58.348Z,18.13
2018-10-16T09:26:26.472Z,21.60
2018-10-16T09:28:54.542Z,18.70
2018-10-16T09:31:22.638Z,19.67
2018-10-16T09:33:50.902Z,25.60
2018-10-16T09:36:19.013Z,20.37
2018-10-16T09:38:47.079Z,19.13
2018-10-16T09:41:15.142Z,19.43
2018-10-16T09:43:43.280Z,17.73
2018-10-16T09:46:11.353Z,19.20
2018-10-16T09:48:39.420Z,17.07
2018-10-16T09:51:07.699Z,16.83
2018-10-16T09:53:35.988Z,18.27
2018-10-16T09:56:04.454Z,16.23
2018-10-16T09:58:32.525Z,18.73
2018-10-16T10:01:06.329Z,19.83
2018-10-16T10:03:35.926Z,16.77
2018-10-16T10:06:04.128Z,16.70
2018-10-16T10:08:33.201Z,13.93
2018-10-16T10:11:01.360Z,13.93
2018-10-16T10:13:29.748Z,14.77
2018-10-16T10:15:58.128Z,14.27
2018-10-16T10:18:26.234Z,21.00
2018-10-16T10:20:54.522Z,14.03
2018-10-16T10:23:22.763Z,16.93
2018-10-16T10:25:50.964Z,16.37
2018-10-16T10:28:19.118Z,18.70
2018-10-16T10:30:47.208Z,16.37
2018-10-16T10:33:15.646Z,10.63
2018-10-16T10:35:43.764Z,14.00
2018-10-16T10:38:11.917Z,10.03
2018-10-16T10:40:40.236Z,11.20
2018-10-16T10:43:08.557Z,12.70
2018-10-16T10:45:36.904Z,10.50
2018-10-16T10:48:05.413Z,10.17
2018-10-16T10:50:34.417Z,10.97
2018-10-16T10:53:03.505Z,11.03
2018-10-16T10:55:31.608Z,11.13
2018-10-16T10:57:59.815Z,12.67
2018-10-16T11:00:27.874Z,11.03
2018-10-16T11:02:56.090Z,12.30
2018-10-16T11:05:24.335Z,11.80
2018-10-16T11:07:52.442Z,10.93
2018-10-16T11:10:20.649Z,9.57
2018-10-16T11:12:48.792Z,11.10
2018-10-16T11:15:17.025Z,9.67
2018-10-16T11:17:45.291Z,9.53
2018-10-16T11:20:14.360Z,9.67
2018-10-16T11:22:42.936Z,10.10
2018-10-16T11:25:11.678Z,11.10
2018-10-16T11:27:40.153Z,10.10
2018-10-16T11:30:10.446Z,9.10
2018-10-16T11:32:38.985Z,8.90
2018-10-16T11:35:07.681Z,8.63
2018-10-16T11:37:36.311Z,10.27
2018-10-16T11:40:04.506Z,8.87
2018-10-16T11:42:32.605Z,9.50
2018-10-16T11:45:00.945Z,10.63
2018-10-16T11:47:29.016Z,10.80
2018-10-16T11:49:57.117Z,8.80
2018-10-16T11:52:25.521Z,10.20
2018-10-16T11:54:53.637Z,9.00
2018-10-16T11:57:21.737Z,8.80
2018-10-16T11:59:49.790Z,9.17
2018-10-16T12:02:17.936Z,10.37
2018-10-16T12:04:46.134Z,8.53
2018-10-16T12:07:14.377Z,8.10
2018-10-16T12:09:42.717Z,10.00
2018-10-16T12:12:10.826Z,9.40
2018-10-16T12:14:38.876Z,8.27
2018-10-16T12:17:14.597Z,9.43
2018-10-16T12:19:45.761Z,9.07
2018-10-16T12:22:14.223Z,8.27
2018-10-16T12:24:43.333Z,8.90
2018-10-16T12:27:11.788Z,10.33
2018-10-16T12:29:40.058Z,8.07
2018-10-16T12:32:08.164Z,7.90
2018-10-16T12:34:36.520Z,8.10
2018-10-16T12:37:05.077Z,8.50
2018-10-16T12:39:33.357Z,9.70
2018-10-16T12:42:01.678Z,8.73
2018-10-16T12:44:29.959Z,8.40
2018-10-16T12:46:58.083Z,8.10
2018-10-16T12:49:26.314Z,7.87
2018-10-16T12:51:54.373Z,7.80
2018-10-16T12:54:22.443Z,8.33
2018-10-16T12:56:50.801Z,8.27
2018-10-16T12:59:19.101Z,8.53
2018-10-16T13:01:47.302Z,10.27
2018-10-16T13:04:15.378Z,10.57
2018-10-16T13:06:44.034Z,9.77
2018-10-16T13:09:12.859Z,9.67
2018-10-16T13:11:41.821Z,10.07
2018-10-16T13:14:09.922Z,10.47
2018-10-16T13:16:38.830Z,9.90
2018-10-16T13:19:07.392Z,11.67
2018-10-16T13:21:35.755Z,10.63
2018-10-16T13:24:03.933Z,9.17
2018-10-16T13:26:32.200Z,8.40
2018-10-16T13:29:00.804Z,9.40
2018-10-16T13:31:29.265Z,11.70
2018-10-16T13:33:57.353Z,8.33
2018-10-16T13:36:25.650Z,9.23
2018-10-16T13:38:53.794Z,7.73
2018-10-16T13:41:21.876Z,8.80
2018-10-16T13:43:49.929Z,8.47
2018-10-16T13:46:18.119Z,7.53
2018-10-16T13:48:46.352Z,7.10
2018-10-16T13:51:14.400Z,7.50
2018-10-16T13:53:42.459Z,8.10
2018-10-16T13:56:10.569Z,9.00
2018-10-16T13:58:38.902Z,8.47
2018-10-16T14:01:07.396Z,7.20
2018-10-16T14:03:35.785Z,7.67
2018-10-16T14:06:04.206Z,8.33
2018-10-16T14:08:32.356Z,8.90
2018-10-16T14:11:00.427Z,8.37
2018-10-16T14:13:28.701Z,7.60
2018-10-16T14:15:56.946Z,12.80
2018-10-16T14:18:25.219Z,12.13
2018-10-16T14:20:53.289Z,10.47
2018-10-16T14:23:21.403Z,8.53
2018-10-16T14:25:49.529Z,8.67
2018-10-16T14:28:17.605Z,10.20
2018-10-16T14:30:45.689Z,11.13
2018-10-16T14:33:13.891Z,9.50
2018-10-16T14:35:42.140Z,8.60
2018-10-16T14:38:10.332Z,9.90
2018-10-16T14:40:38.501Z,8.50
2018-10-16T14:43:06.748Z,8.77
2018-10-16T14:45:34.850Z,8.30
2018-10-16T14:48:03.274Z,12.00
2018-10-16T14:50:31.543Z,8.60
2018-10-16T14:52:59.668Z,8.30
2018-10-16T14:55:28.402Z,8.17
2018-10-16T14:57:56.544Z,9.20
2018-10-16T15:00:25.298Z,12.10
2018-10-16T15:02:54.048Z,12.20
2018-10-16T15:05:22.120Z,12.67
2018-10-16T15:07:50.287Z,9.13
2018-10-16T15:10:18.425Z,12.50
2018-10-16T15:12:46.656Z,9.20
2018-10-16T15:15:14.788Z,9.33
2018-10-16T15:17:42.896Z,9.13
2018-10-16T15:20:11.271Z,9.33
2018-10-16T15:22:39.512Z,9.77
2018-10-16T15:25:08.270Z,10.37
2018-10-16T15:27:36.433Z,9.80
2018-10-16T15:30:05.674Z,9.20
2018-10-16T15:32:33.825Z,14.37
2018-10-16T15:35:01.931Z,9.23
2018-10-16T15:37:30.105Z,9.57
2018-10-16T15:39:58.240Z,10.80
2018-10-16T15:42:26.498Z,10.23
2018-10-16T15:44:54.652Z,11.73
2018-10-16T15:47:23.405Z,8.60
2018-10-16T15:49:51.727Z,8.90
2018-10-16T15:52:19.937Z,9.07
2018-10-16T15:54:48.049Z,13.33
2018-10-16T15:57:16.237Z,9.00
2018-10-16T15:59:44.303Z,10.37
2018-10-16T16:02:12.611Z,9.80
2018-10-16T16:04:40.857Z,10.10
2018-10-16T16:07:09.134Z,12.30
2018-10-16T16:09:37.192Z,12.53
2018-10-16T16:12:06.401Z,9.83
2018-10-16T16:14:34.670Z,8.97
2018-10-16T16:17:02.781Z,13.50
2018-10-16T16:19:30.996Z,12.33
2018-10-16T16:21:59.122Z,18.40
2018-10-16T16:24:27.521Z,9.37
2018-10-16T16:26:55.757Z,11.90
2018-10-16T16:29:23.874Z,8.37
2018-10-16T16:31:53.303Z,15.90
2018-10-16T16:34:22.083Z,11.87
2018-10-16T16:36:50.360Z,16.77
2018-10-16T16:39:18.563Z,16.03
2018-10-16T16:41:46.966Z,11.90
2018-10-16T16:44:15.109Z,9.67
2018-10-16T16:46:43.306Z,10.33
2018-10-16T16:49:11.487Z,10.30
2018-10-16T16:51:39.648Z,12.53
2018-10-16T16:54:07.912Z,12.60
2018-10-16T16:56:36.229Z,11.60
2018-10-16T16:59:04.408Z,12.30
2018-10-16T17:01:32.681Z,11.73
2018-10-16T17:04:00.875Z,10.70
2018-10-16T17:06:29.229Z,9.73
2018-10-16T17:08:57.425Z,12.63
2018-10-16T17:11:25.604Z,15.73
2018-10-16T17:13:53.804Z,10.80
2018-10-16T17:16:22.123Z,17.57
2018-10-16T17:18:50.246Z,16.03
2018-10-16T17:21:18.530Z,12.07
2018-10-16T17:23:46.638Z,13.73
2018-10-16T17:26:15.170Z,14.80
2018-10-16T17:28:43.135Z,13.37
2018-10-16T17:31:11.317Z,13.80
2018-10-16T17:33:39.484Z,10.30
2018-10-16T17:36:07.573Z,9.70
2018-10-16T17:38:35.733Z,10.20
2018-10-16T17:41:03.833Z,20.33
2018-10-16T17:43:32.080Z,10.27
2018-10-16T17:46:00.423Z,10.30
2018-10-16T17:48:28.551Z,10.07
2018-10-16T17:50:56.680Z,10.60
2018-10-16T17:53:24.989Z,10.20
2018-10-16T17:55:53.317Z,12.00
2018-10-16T17:58:21.379Z,10.57
2018-10-16T18:00:49.643Z,13.70
2018-10-16T18:03:18.223Z,9.73
2018-10-16T18:05:46.340Z,10.00
2018-10-16T18:08:14.486Z,11.13
2018-10-16T18:10:42.596Z,13.10
2018-10-16T18:13:10.717Z,13.03
2018-10-16T18:15:39.001Z,10.10
2018-10-16T18:18:07.305Z,10.63
2018-10-16T18:20:35.556Z,12.03
2018-10-16T18:23:03.645Z,11.30
2018-10-16T18:25:31.817Z,13.33
2018-10-16T18:28:00.060Z,11.00
2018-10-16T18:30:28.217Z,12.43
2018-10-16T18:32:56.326Z,17.23
2018-10-16T18:35:24.656Z,13.30
2018-10-16T18:37:52.793Z,18.07
2018-10-16T18:40:20.966Z,10.37
2018-10-16T18:42:49.105Z,12.80
2018-10-16T18:45:17.235Z,11.80
2018-10-16T18:47:45.560Z,12.73
2018-10-16T18:50:14.454Z,12.30
2018-10-16T18:52:43.249Z,13.93
2018-10-16T18:55:12.788Z,12.90
2018-10-16T18:57:40.910Z,15.67
2018-10-16T19:00:10.308Z,16.50
2018-10-16T19:02:38.625Z,14.97
2018-10-16T19:05:07.521Z,16.20
2018-10-16T19:07:35.682Z,19.50
2018-10-16T19:10:04.180Z,13.97
2018-10-16T19:12:32.368Z,14.47
2018-10-16T19:15:01.566Z,18.30
2018-10-16T19:17:29.898Z,14.53
2018-10-16T19:19:58.065Z,12.60
2018-10-16T19:22:26.389Z,14.63
2018-10-16T19:24:54.560Z,17.97
2018-10-16T19:27:22.929Z,18.07
2018-10-16T19:29:51.205Z,17.37
2018-10-16T19:32:19.326Z,16.40
2018-10-16T19:34:47.567Z,13.70
2018-10-16T19:37:15.699Z,15.90
2018-10-16T19:39:43.898Z,14.00
2018-10-16T19:42:12.132Z,14.40
2018-10-16T19:44:40.240Z,16.37
2018-10-16T19:47:08.369Z,16.60
2018-10-16T19:49:36.490Z,15.90
2018-10-16T19:52:05.291Z,13.90
2018-10-16T19:54:33.348Z,13.90
2018-10-16T19:57:01.529Z,17.80
2018-10-16T19:59:29.726Z,14.90
2018-10-16T20:01:57.871Z,18.13
2018-10-16T20:04:25.978Z,13.97
2018-10-16T20:06:54.163Z,13.83
2018-10-16T20:09:22.353Z,12.47
2018-10-16T20:11:50.616Z,15.37
2018-10-16T20:14:18.827Z,13.30
2018-10-16T20:16:47.053Z,16.53
2018-10-16T20:19:15.299Z,16.00
2018-10-16T20:21:43.438Z,13.87
2018-10-16T20:24:11.613Z,14.50
2018-10-16T20:26:39.749Z,14.73
2018-10-16T20:29:07.907Z,14.07
2018-10-16T20:31:36.151Z,14.40
2018-10-16T20:34:04.630Z,14.30
2018-10-16T20:36:32.723Z,14.17
2018-10-16T20:39:01.041Z,14.73
2018-10-16T20:41:29.292Z,15.27
2018-10-16T20:43:57.499Z,16.73
2018-10-16T20:46:25.608Z,17.70
2018-10-16T20:48:53.824Z,16.13
2018-10-16T20:51:22.105Z,18.33
2018-10-16T20:53:50.291Z,19.40
2018-10-16T20:56:18.453Z,16.40
2018-10-16T20:58:46.540Z,14.37
2018-10-16T21:01:15.253Z,15.33
2018-10-16T21:03:43.353Z,16.90
2018-10-16T21:06:11.730Z,15.93
2018-10-16T21:08:39.968Z,17.97
2018-10-16T21:11:08.027Z,15.87
2018-10-16T21:13:36.345Z,14.97
2018-10-16T21:16:04.725Z,15.43
2018-10-16T21:18:32.842Z,18.50
2018-10-16T21:21:00.978Z,20.27
2018-10-16T21:23:29.115Z,15.87
2018-10-16T21:25:57.283Z,17.50
2018-10-16T21:28:25.480Z,16.17
2018-10-16T21:30:53.736Z,15.43
2018-10-16T21:33:22.021Z,15.70
2018-10-16T21:35:50.090Z,17.73
2018-10-16T21:38:18.275Z,18.33
2018-10-16T21:40:46.625Z,14.97
2018-10-16T21:43:14.909Z,16.20
2018-10-16T21:45:43.605Z,20.47
2018-10-16T21:48:11.661Z,18.13
2018-10-16T21:50:39.746Z,18.30
2018-10-16T21:53:07.885Z,17.30
2018-10-16T21:55:36.229Z,18.83
2018-10-16T21:58:04.685Z,15.90
2018-10-16T22:00:38.645Z,14.80
2018-10-16T22:03:06.768Z,15.83
2018-10-16T22:05:34.973Z,15.47
2018-10-16T22:08:03.109Z,15.33
2018-10-16T22:10:31.315Z,15.10
2018-10-16T22:12:59.603Z,16.33
2018-10-16T22:15:27.868Z,16.00
2018-10-16T22:17:56.072Z,14.83
2018-10-16T22:20:24.192Z,15.07
2018-10-16T22:22:52.371Z,14.47
2018-10-16T22:25:20.677Z,16.67
2018-10-16T22:27:48.754Z,14.93
2018-10-16T22:30:16.852Z,20.40
2018-10-16T22:32:45.101Z,14.97
2018-10-16T22:35:13.219Z,14.60
2018-10-16T22:37:41.445Z,15.40
2018-10-16T22:40:10.209Z,15.27
2018-10-16T22:42:38.312Z,19.53
2018-10-16T22:45:06.764Z,19.67
2018-10-16T22:47:34.826Z,19.60
2018-10-16T22:50:03.115Z,15.10
2018-10-16T22:52:31.444Z,14.47
2018-10-16T22:54:59.576Z,19.83
2018-10-16T22:57:27.833Z,14.77
2018-10-16T22:59:55.925Z,16.00
2018-10-16T23:02:24.026Z,14.97
2018-10-16T23:04:52.136Z,15.47
2018-10-16T23:07:20.376Z,18.07
2018-10-16T23:09:48.580Z,15.40
2018-10-16T23:12:16.652Z,15.87
2018-10-16T23:14:44.709Z,14.73
2018-10-16T23:17:13.003Z,14.20
2018-10-16T23:19:41.249Z,15.70
2018-10-16T23:22:09.317Z,17.07
2018-10-16T23:24:37.388Z,15.20
2018-10-16T23:27:05.459Z,15.93
2018-10-16T23:29:33.525Z,14.10
2018-10-16T23:32:01.617Z,16.13
2018-10-16T23:34:29.696Z,14.40
2018-10-16T23:36:57.858Z,17.60
2018-10-16T23:39:26.100Z,15.60
2018-10-16T23:41:54.208Z,15.23
2018-10-16T23:44:22.276Z,15.53
2018-10-16T23:46:50.419Z,14.23
2018-10-16T23:49:18.752Z,15.70
2018-10-16T23:51:46.913Z,14.00
2018-10-16T23:54:14.989Z,14.33
2018-10-16T23:56:43.073Z,15.60
2018-10-16T23:59:11.270Z,14.33
